createdAt,value
2023-04-27T00:00:29.786Z,7.49
2023-04-27T00:05:44.167Z,7.48
2023-04-27T00:10:46.072Z,7.43
2023-04-27T00:15:48.095Z,7.35
2023-04-27T00:20:50.232Z,7.32
2023-04-27T00:25:52.170Z,7.29
2023-04-27T00:30:55.557Z,7.25
2023-04-27T00:36:03.986Z,7.17
2023-04-27T00:41:08.856Z,7.06
2023-04-27T00:46:13.168Z,6.97
2023-04-27T00:51:15.421Z,6.91
2023-04-27T00:56:18.004Z,6.88
2023-04-27T01:01:21.142Z,6.77
2023-04-27T01:06:23.059Z,6.70
2023-04-27T01:11:25.155Z,6.65
2023-04-27T01:16:27.337Z,6.56
2023-04-27T01:21:29.130Z,6.42
2023-04-27T01:26:31.132Z,6.40
2023-04-27T01:31:34.200Z,6.39
2023-04-27T01:36:36.378Z,6.30
2023-04-27T01:41:38.267Z,6.30
2023-04-27T01:46:40.330Z,6.28
2023-04-27T01:51:42.170Z,6.19
2023-04-27T01:56:43.968Z,6.17
2023-04-27T02:01:47.236Z,6.19
2023-04-27T02:06:49.047Z,6.14
2023-04-27T02:11:50.983Z,6.00
2023-04-27T02:16:53.085Z,5.87
2023-04-27T02:21:55.090Z,5.76
2023-04-27T02:26:57.080Z,5.75
2023-04-27T02:31:59.063Z,5.76
2023-04-27T02:37:02.175Z,5.75
2023-04-27T02:42:05.233Z,5.72
2023-04-27T02:47:07.326Z,5.63
2023-04-27T02:52:09.553Z,5.53
2023-04-27T02:57:11.639Z,5.53
2023-04-27T03:02:13.549Z,5.48
2023-04-27T03:07:15.526Z,5.40
2023-04-27T03:12:17.290Z,5.33
2023-04-27T03:17:19.032Z,5.26
2023-04-27T03:22:23.597Z,5.23
2023-04-27T03:27:25.411Z,5.22
2023-04-27T03:32:27.211Z,5.19
2023-04-27T03:37:29.895Z,5.16
2023-04-27T03:42:32.295Z,5.14
2023-04-27T03:47:34.146Z,5.12
2023-04-27T03:52:35.939Z,5.14
2023-04-27T03:57:39.348Z,5.13
2023-04-27T04:02:42.293Z,5.19
2023-04-27T04:07:45.227Z,5.38
2023-04-27T04:12:48.115Z,5.78
2023-04-27T04:17:52.863Z,6.53
2023-04-27T04:22:54.632Z,8.21
2023-04-27T04:27:56.803Z,8.19
2023-04-27T04:32:58.679Z,8.58
2023-04-27T04:38:00.777Z,8.51
2023-04-27T04:43:04.279Z,8.45
2023-04-27T04:48:06.264Z,8.47
2023-04-27T04:53:08.344Z,8.50
2023-04-27T04:58:10.333Z,8.22
2023-04-27T05:03:12.326Z,8.31
2023-04-27T05:08:14.190Z,8.57
2023-04-27T05:13:16.097Z,8.36
2023-04-27T05:18:18.663Z,8.68
2023-04-27T05:23:20.500Z,8.74
2023-04-27T05:28:22.376Z,8.77
2023-04-27T05:33:24.088Z,8.54
2023-04-27T05:38:26.250Z,8.48
2023-04-27T05:43:28.021Z,8.75
2023-04-27T05:48:30.016Z,9.42
2023-04-27T05:53:33.246Z,9.98
2023-04-27T05:58:35.033Z,10.96
2023-04-27T06:03:37.136Z,11.73
2023-04-27T06:08:39.600Z,12.20
2023-04-27T06:13:41.548Z,12.44
2023-04-27T06:18:43.299Z,12.36
2023-04-27T06:23:45.113Z,12.07
2023-04-27T06:28:46.890Z,12.46
2023-04-27T06:33:48.635Z,13.00
2023-04-27T06:38:50.612Z,13.55
2023-04-27T06:43:53.413Z,13.73
2023-04-27T06:48:55.118Z,13.98
2023-04-27T06:53:57.355Z,14.35
2023-04-27T06:58:59.607Z,14.53
2023-04-27T07:04:01.561Z,14.81
2023-04-27T07:09:13.265Z,15.38
2023-04-27T07:14:22.786Z,15.30
2023-04-27T07:19:24.600Z,14.27
2023-04-27T07:24:26.361Z,14.48
2023-04-27T07:29:28.542Z,14.72
2023-04-27T07:34:41.121Z,15.71
2023-04-27T07:39:47.400Z,15.75
2023-04-27T07:44:50.363Z,16.10
2023-04-27T07:49:53.067Z,16.09
2023-04-27T07:54:54.846Z,16.09
2023-04-27T07:59:57.432Z,16.18
2023-04-27T08:04:59.439Z,17.02
2023-04-27T08:10:01.582Z,16.79
2023-04-27T08:15:05.670Z,17.49
2023-04-27T08:20:11.513Z,17.81
2023-04-27T08:25:13.241Z,18.34
2023-04-27T08:30:15.196Z,18.30
2023-04-27T08:35:16.915Z,17.96
2023-04-27T08:40:20.033Z,18.76
2023-04-27T08:45:24.285Z,19.07
2023-04-27T08:50:26.113Z,18.85
2023-04-27T08:55:30.187Z,18.27
2023-04-27T09:00:42.466Z,18.41
2023-04-27T09:06:00.682Z,18.13
2023-04-27T09:11:07.867Z,17.69
2023-04-27T09:16:14.358Z,18.83
2023-04-27T09:21:26.399Z,19.05
2023-04-27T09:26:28.142Z,18.76
2023-04-27T09:31:34.245Z,18.76
2023-04-27T09:36:36.606Z,20.17
2023-04-27T09:41:38.572Z,19.56
2023-04-27T09:46:44.144Z,19.45
2023-04-27T09:51:45.921Z,19.91
2023-04-27T09:57:03.518Z,20.72
2023-04-27T10:07:27.956Z,20.50
2023-04-27T10:12:36.762Z,21.61
2023-04-27T10:17:38.882Z,21.69
2023-04-27T10:22:43.163Z,20.59
2023-04-27T10:27:53.333Z,20.01
2023-04-27T10:32:59.907Z,19.40
2023-04-27T10:38:19.624Z,17.01
2023-04-27T10:43:25.824Z,17.36
2023-04-27T10:48:30.441Z,19.62
2023-04-27T10:53:36.628Z,20.40
2023-04-27T11:03:46.961Z,20.86
2023-04-27T11:08:48.852Z,20.78
2023-04-27T11:13:55.696Z,19.90
2023-04-27T11:19:04.746Z,18.73
2023-04-27T11:24:07.661Z,20.38
2023-04-27T11:29:12.543Z,19.49
2023-04-27T11:34:22.732Z,20.19
2023-04-27T11:39:32.948Z,20.37
2023-04-27T11:44:34.677Z,20.83
2023-04-27T11:49:37.700Z,21.07
2023-04-27T11:54:39.575Z,21.87
2023-04-27T11:59:41.772Z,21.80
2023-04-27T12:04:43.756Z,22.28
2023-04-27T12:09:46.085Z,21.56
2023-04-27T12:14:48.570Z,22.64
2023-04-27T12:19:50.344Z,21.53
2023-04-27T12:24:52.071Z,21.94
2023-04-27T12:29:54.445Z,20.69
2023-04-27T12:34:56.280Z,19.78
2023-04-27T12:39:58.306Z,21.77
2023-04-27T12:45:00.090Z,20.62
2023-04-27T12:50:01.925Z,20.17
2023-04-27T12:55:04.977Z,19.66
2023-04-27T13:00:10.253Z,19.46
2023-04-27T13:05:12.242Z,18.18
2023-04-27T13:10:13.988Z,17.22
2023-04-27T13:15:15.732Z,18.92
2023-04-27T13:20:17.618Z,17.53
2023-04-27T13:25:20.116Z,17.07
2023-04-27T13:30:21.919Z,17.19
2023-04-27T13:35:24.829Z,18.05
2023-04-27T13:40:26.902Z,18.02
2023-04-27T13:45:28.686Z,18.64
2023-04-27T13:50:30.569Z,18.99
2023-04-27T13:55:32.399Z,19.75
2023-04-27T14:00:34.837Z,19.41
2023-04-27T14:05:36.721Z,19.31
2023-04-27T14:10:38.749Z,19.40
2023-04-27T14:15:41.384Z,19.63
2023-04-27T14:20:44.629Z,19.89
2023-04-27T14:25:46.448Z,20.13
2023-04-27T14:30:48.284Z,20.30
2023-04-27T14:35:50.384Z,19.95
2023-04-27T14:40:52.359Z,20.07
2023-04-27T14:46:01.857Z,20.35
2023-04-27T14:51:11.120Z,19.89
2023-04-27T14:56:12.885Z,20.64
2023-04-27T15:01:14.647Z,20.47
2023-04-27T15:06:16.546Z,19.84
2023-04-27T15:11:18.335Z,19.45
2023-04-27T15:16:20.463Z,19.74
2023-04-27T15:21:22.390Z,19.60
2023-04-27T15:26:26.406Z,18.01
2023-04-27T15:31:28.257Z,19.09
2023-04-27T15:36:30.051Z,18.72
2023-04-27T15:41:32.269Z,18.70
2023-04-27T15:46:34.972Z,18.43
2023-04-27T15:51:36.748Z,18.47
2023-04-27T15:56:39.650Z,17.94
2023-04-27T16:01:41.606Z,18.47
2023-04-27T16:06:43.378Z,18.14
2023-04-27T16:11:45.143Z,18.61
2023-04-27T16:16:46.957Z,18.70
2023-04-27T16:21:48.799Z,18.61
2023-04-27T16:26:50.574Z,18.56
2023-04-27T16:31:53.267Z,18.48
2023-04-27T16:36:55.416Z,17.98
2023-04-27T16:41:57.233Z,17.43
2023-04-27T16:46:58.916Z,17.83
2023-04-27T16:52:00.742Z,18.33
2023-04-27T16:57:02.586Z,18.19
2023-04-27T17:02:17.010Z,17.76
2023-04-27T17:07:28.500Z,17.07
2023-04-27T17:12:30.272Z,16.46
2023-04-27T17:17:33.700Z,17.44
2023-04-27T17:22:35.719Z,17.39
2023-04-27T17:27:39.965Z,17.21
2023-04-27T17:32:41.981Z,16.63
2023-04-27T17:37:48.229Z,15.80
2023-04-27T17:42:50.257Z,15.14
2023-04-27T17:47:55.161Z,14.61
2023-04-27T17:52:57.327Z,14.10
2023-04-27T17:57:59.195Z,13.72
2023-04-27T18:03:01.188Z,13.35
2023-04-27T18:08:06.007Z,13.01
2023-04-27T18:13:09.358Z,12.70
2023-04-27T18:18:19.060Z,12.41
2023-04-27T18:23:23.114Z,12.14
2023-04-27T18:28:26.069Z,11.91
2023-04-27T18:33:27.766Z,11.72
2023-04-27T18:38:29.741Z,11.53
2023-04-27T18:43:38.766Z,11.30
2023-04-27T18:48:43.009Z,11.10
2023-04-27T18:53:49.021Z,10.95
2023-04-27T18:58:51.136Z,10.79
2023-04-27T19:03:53.955Z,10.67
2023-04-27T19:08:56.573Z,10.60
2023-04-27T19:14:00.832Z,10.51
2023-04-27T19:19:02.504Z,10.42
2023-04-27T19:24:05.742Z,10.33
2023-04-27T19:29:07.621Z,10.24
2023-04-27T19:34:09.371Z,10.14
2023-04-27T19:39:13.423Z,10.03
2023-04-27T19:49:53.190Z,9.87
2023-04-27T20:00:25.641Z,9.71
2023-04-27T20:05:27.808Z,9.58
2023-04-27T20:10:29.753Z,9.42
2023-04-27T20:15:32.338Z,9.31
2023-04-27T20:20:34.191Z,9.24
2023-04-27T20:25:36.083Z,9.17
2023-04-27T20:30:37.796Z,9.14
2023-04-27T20:35:39.984Z,9.05
2023-04-27T20:40:42.075Z,9.01
2023-04-27T20:45:43.902Z,8.98
2023-04-27T20:50:45.837Z,8.84
2023-04-27T20:55:47.573Z,8.73
2023-04-27T21:00:49.415Z,8.57
2023-04-27T21:05:51.418Z,8.38
2023-04-27T21:10:53.223Z,8.31
2023-04-27T21:15:54.959Z,8.19
2023-04-27T21:20:56.911Z,8.11
2023-04-27T21:25:58.654Z,8.10
2023-04-27T21:31:07.750Z,8.02
2023-04-27T21:36:12.007Z,7.90
2023-04-27T21:41:17.485Z,7.81
2023-04-27T21:46:21.581Z,7.78
2023-04-27T21:51:23.549Z,7.67
2023-04-27T21:56:27.370Z,7.52
2023-04-27T22:01:29.237Z,7.46
2023-04-27T22:06:31.079Z,7.39
2023-04-27T22:11:32.913Z,7.30
2023-04-27T22:16:34.915Z,7.22
2023-04-27T22:21:37.638Z,7.23
2023-04-27T22:26:42.733Z,7.15
2023-04-27T22:31:45.582Z,7.08
2023-04-27T22:36:47.447Z,7.09
2023-04-27T22:41:50.660Z,7.10
2023-04-27T22:46:52.808Z,7.09
2023-04-27T22:51:57.748Z,7.06
2023-04-27T22:56:59.518Z,7.05
2023-04-27T23:02:01.239Z,7.08
2023-04-27T23:07:03.870Z,7.01
2023-04-27T23:12:07.816Z,7.16
2023-04-27T23:17:10.322Z,7.28
2023-04-27T23:22:15.238Z,7.31
2023-04-27T23:27:17.041Z,7.30
2023-04-27T23:32:18.832Z,7.25
2023-04-27T23:37:21.490Z,7.21
2023-04-27T23:42:23.214Z,7.07
2023-04-27T23:47:24.998Z,6.98
2023-04-27T23:52:26.865Z,6.93
2023-04-27T23:57:28.580Z,6.78
